sensor_id;sensor_type;location;lat;lon;timestamp;temperature;humidity
60717;DHT22;46566;52.700;6.192;2023-03-20T00:02:05;8.80;99.90
60717;DHT22;46566;52.700;6.192;2023-03-20T00:04:31;8.80;99.90
60717;DHT22;46566;52.700;6.192;2023-03-20T00:06:56;8.80;99.90
60717;DHT22;46566;52.700;6.192;2023-03-20T00:09:22;8.80;99.90
60717;DHT22;46566;52.700;6.192;2023-03-20T00:11:50;8.80;99.90
60717;DHT22;46566;52.700;6.192;2023-03-20T00:14:17;8.80;99.90
60717;DHT22;46566;52.700;6.192;2023-03-20T00:16:44;8.70;99.90
60717;DHT22;46566;52.700;6.192;2023-03-20T00:19:17;8.80;99.90
60717;DHT22;46566;52.700;6.192;2023-03-20T00:21:43;8.70;99.90
60717;DHT22;46566;52.700;6.192;2023-03-20T00:24:12;8.70;99.90
60717;DHT22;46566;52.700;6.192;2023-03-20T00:26:38;8.70;99.90
60717;DHT22;46566;52.700;6.192;2023-03-20T00:29:04;8.70;99.90
60717;DHT22;46566;52.700;6.192;2023-03-20T00:31:30;8.70;99.90
60717;DHT22;46566;52.700;6.192;2023-03-20T00:33:57;8.70;99.90
60717;DHT22;46566;52.700;6.192;2023-03-20T00:36:25;8.70;99.90
60717;DHT22;46566;52.700;6.192;2023-03-20T00:38:50;8.70;99.90
60717;DHT22;46566;52.700;6.192;2023-03-20T00:43:46;8.60;99.90
60717;DHT22;46566;52.700;6.192;2023-03-20T00:46:12;8.60;99.90
60717;DHT22;46566;52.700;6.192;2023-03-20T00:48:39;8.60;99.90
60717;DHT22;46566;52.700;6.192;2023-03-20T00:51:05;8.60;99.90
60717;DHT22;46566;52.700;6.192;2023-03-20T00:53:31;8.60;99.90
60717;DHT22;46566;52.700;6.192;2023-03-20T00:55:57;8.60;99.90
60717;DHT22;46566;52.700;6.192;2023-03-20T00:58:23;8.60;99.90
60717;DHT22;46566;52.700;6.192;2023-03-20T01:00:48;8.60;99.90
60717;DHT22;46566;52.700;6.192;2023-03-20T01:03:21;8.70;99.90
60717;DHT22;46566;52.700;6.192;2023-03-20T01:05:47;8.60;99.90
60717;DHT22;46566;52.700;6.192;2023-03-20T01:08:18;8.60;99.90
60717;DHT22;46566;52.700;6.192;2023-03-20T01:10:44;8.60;99.90
60717;DHT22;46566;52.700;6.192;2023-03-20T01:13:32;8.60;99.90
60717;DHT22;46566;52.700;6.192;2023-03-20T01:15:56;8.60;99.90
60717;DHT22;46566;52.700;6.192;2023-03-20T01:18:23;8.50;99.90
60717;DHT22;46566;52.700;6.192;2023-03-20T01:20:49;8.50;99.90
60717;DHT22;46566;52.700;6.192;2023-03-20T01:23:15;8.50;99.90
60717;DHT22;46566;52.700;6.192;2023-03-20T01:25:40;8.50;99.90
60717;DHT22;46566;52.700;6.192;2023-03-20T01:28:16;8.50;99.90
60717;DHT22;46566;52.700;6.192;2023-03-20T01:30:43;8.50;99.90
60717;DHT22;46566;52.700;6.192;2023-03-20T01:33:16;8.50;99.90
60717;DHT22;46566;52.700;6.192;2023-03-20T01:35:43;8.60;99.90
60717;DHT22;46566;52.700;6.192;2023-03-20T01:40:41;8.50;99.90
60717;DHT22;46566;52.700;6.192;2023-03-20T01:43:11;8.50;99.90
60717;DHT22;46566;52.700;6.192;2023-03-20T01:45:37;8.50;99.90
60717;DHT22;46566;52.700;6.192;2023-03-20T01:48:16;8.50;99.90
60717;DHT22;46566;52.700;6.192;2023-03-20T01:50:42;8.50;99.90
60717;DHT22;46566;52.700;6.192;2023-03-20T01:55:43;8.50;99.90
60717;DHT22;46566;52.700;6.192;2023-03-20T01:58:12;8.50;99.90
60717;DHT22;46566;52.700;6.192;2023-03-20T02:00:40;8.50;99.90
60717;DHT22;46566;52.700;6.192;2023-03-20T02:03:10;8.50;99.90
60717;DHT22;46566;52.700;6.192;2023-03-20T02:06:02;8.40;99.90
60717;DHT22;46566;52.700;6.192;2023-03-20T02:08:49;8.50;99.90
60717;DHT22;46566;52.700;6.192;2023-03-20T02:11:16;8.50;99.90
60717;DHT22;46566;52.700;6.192;2023-03-20T02:13:42;8.40;99.90
60717;DHT22;46566;52.700;6.192;2023-03-20T02:16:12;8.40;99.90
60717;DHT22;46566;52.700;6.192;2023-03-20T02:18:51;8.40;99.90
60717;DHT22;46566;52.700;6.192;2023-03-20T02:23:56;8.40;99.90
60717;DHT22;46566;52.700;6.192;2023-03-20T02:26:40;8.40;99.90
60717;DHT22;46566;52.700;6.192;2023-03-20T02:29:20;8.40;99.90
60717;DHT22;46566;52.700;6.192;2023-03-20T02:43:27;8.40;99.90
60717;DHT22;46566;52.700;6.192;2023-03-20T02:45:31;8.40;99.90
60717;DHT22;46566;52.700;6.192;2023-03-20T02:48:19;8.40;99.90
60717;DHT22;46566;52.700;6.192;2023-03-20T02:51:01;8.40;99.90
60717;DHT22;46566;52.700;6.192;2023-03-20T02:53:34;8.40;99.90
60717;DHT22;46566;52.700;6.192;2023-03-20T02:56:13;8.40;99.90
60717;DHT22;46566;52.700;6.192;2023-03-20T03:01:12;8.40;99.90
60717;DHT22;46566;52.700;6.192;2023-03-20T03:03:44;8.40;99.90
60717;DHT22;46566;52.700;6.192;2023-03-20T03:06:19;8.40;99.90
60717;DHT22;46566;52.700;6.192;2023-03-20T03:08:49;8.40;99.90
60717;DHT22;46566;52.700;6.192;2023-03-20T03:11:15;8.40;99.90
60717;DHT22;46566;52.700;6.192;2023-03-20T03:13:46;8.40;99.90
60717;DHT22;46566;52.700;6.192;2023-03-20T03:16:20;8.40;99.90
60717;DHT22;46566;52.700;6.192;2023-03-20T03:18:48;8.40;99.90
60717;DHT22;46566;52.700;6.192;2023-03-20T03:21:15;8.40;99.90
60717;DHT22;46566;52.700;6.192;2023-03-20T03:23:45;8.40;99.90
60717;DHT22;46566;52.700;6.192;2023-03-20T03:26:12;8.30;99.90
60717;DHT22;46566;52.700;6.192;2023-03-20T03:28:42;8.40;99.90
60717;DHT22;46566;52.700;6.192;2023-03-20T03:31:12;8.30;99.90
60717;DHT22;46566;52.700;6.192;2023-03-20T03:33:40;8.30;99.90
60717;DHT22;46566;52.700;6.192;2023-03-20T03:36:12;8.40;99.90
60717;DHT22;46566;52.700;6.192;2023-03-20T03:43:46;8.30;99.90
60717;DHT22;46566;52.700;6.192;2023-03-20T03:49:00;8.30;99.90
60717;DHT22;46566;52.700;6.192;2023-03-20T03:51:27;8.30;99.90
60717;DHT22;46566;52.700;6.192;2023-03-20T03:54:10;8.30;99.90
60717;DHT22;46566;52.700;6.192;2023-03-20T03:56:38;8.30;99.90
60717;DHT22;46566;52.700;6.192;2023-03-20T03:59:07;8.20;99.90
60717;DHT22;46566;52.700;6.192;2023-03-20T04:01:34;8.30;99.90
60717;DHT22;46566;52.700;6.192;2023-03-20T04:04:02;8.30;99.90
60717;DHT22;46566;52.700;6.192;2023-03-20T04:06:28;8.20;99.90
60717;DHT22;46566;52.700;6.192;2023-03-20T04:08:54;8.20;99.90
60717;DHT22;46566;52.700;6.192;2023-03-20T04:11:20;8.10;99.90
60717;DHT22;46566;52.700;6.192;2023-03-20T04:13:47;8.10;99.90
60717;DHT22;46566;52.700;6.192;2023-03-20T04:16:14;8.10;99.90
60717;DHT22;46566;52.700;6.192;2023-03-20T04:18:41;8.10;99.90
60717;DHT22;46566;52.700;6.192;2023-03-20T04:21:10;8.10;99.90
60717;DHT22;46566;52.700;6.192;2023-03-20T04:23:36;8.10;99.90
60717;DHT22;46566;52.700;6.192;2023-03-20T04:26:01;8.10;99.90
60717;DHT22;46566;52.700;6.192;2023-03-20T04:28:31;8.10;99.90
60717;DHT22;46566;52.700;6.192;2023-03-20T04:31:15;8.10;99.90
60717;DHT22;46566;52.700;6.192;2023-03-20T04:33:52;8.10;99.90
60717;DHT22;46566;52.700;6.192;2023-03-20T04:36:18;8.10;99.90
60717;DHT22;46566;52.700;6.192;2023-03-20T04:38:43;8.10;99.90
60717;DHT22;46566;52.700;6.192;2023-03-20T04:41:09;8.10;99.90
60717;DHT22;46566;52.700;6.192;2023-03-20T04:43:35;8.00;99.90
60717;DHT22;46566;52.700;6.192;2023-03-20T04:46:01;8.00;99.90
60717;DHT22;46566;52.700;6.192;2023-03-20T04:48:26;8.00;99.90
60717;DHT22;46566;52.700;6.192;2023-03-20T04:50:52;8.00;99.90
60717;DHT22;46566;52.700;6.192;2023-03-20T04:53:24;7.90;99.90
60717;DHT22;46566;52.700;6.192;2023-03-20T04:55:50;8.00;99.90
60717;DHT22;46566;52.700;6.192;2023-03-20T04:58:16;8.00;99.90
60717;DHT22;46566;52.700;6.192;2023-03-20T05:00:42;7.90;99.90
60717;DHT22;46566;52.700;6.192;2023-03-20T05:03:08;8.00;99.90
60717;DHT22;46566;52.700;6.192;2023-03-20T05:05:33;7.90;99.90
60717;DHT22;46566;52.700;6.192;2023-03-20T05:08:03;7.90;99.90
60717;DHT22;46566;52.700;6.192;2023-03-20T05:10:33;7.90;99.90
60717;DHT22;46566;52.700;6.192;2023-03-20T05:13:04;7.90;99.90
60717;DHT22;46566;52.700;6.192;2023-03-20T05:15:30;7.90;99.90
60717;DHT22;46566;52.700;6.192;2023-03-20T05:18:14;7.90;99.90
60717;DHT22;46566;52.700;6.192;2023-03-20T05:21:00;7.90;99.90
60717;DHT22;46566;52.700;6.192;2023-03-20T05:23:46;7.90;99.90
60717;DHT22;46566;52.700;6.192;2023-03-20T05:26:30;7.90;99.90
60717;DHT22;46566;52.700;6.192;2023-03-20T05:29:14;7.90;99.90
60717;DHT22;46566;52.700;6.192;2023-03-20T05:31:58;7.90;99.90
60717;DHT22;46566;52.700;6.192;2023-03-20T05:34:50;7.80;99.90
60717;DHT22;46566;52.700;6.192;2023-03-20T05:37:34;7.90;99.90
60717;DHT22;46566;52.700;6.192;2023-03-20T05:40:05;7.80;99.90
60717;DHT22;46566;52.700;6.192;2023-03-20T05:42:40;7.80;99.90
60717;DHT22;46566;52.700;6.192;2023-03-20T05:45:28;7.80;99.90
60717;DHT22;46566;52.700;6.192;2023-03-20T05:48:20;7.80;99.90
60717;DHT22;46566;52.700;6.192;2023-03-20T05:51:04;7.80;99.90
60717;DHT22;46566;52.700;6.192;2023-03-20T05:53:50;7.80;99.90
60717;DHT22;46566;52.700;6.192;2023-03-20T05:56:31;7.80;99.90
60717;DHT22;46566;52.700;6.192;2023-03-20T05:59:11;7.80;99.90
60717;DHT22;46566;52.700;6.192;2023-03-20T06:01:52;7.90;99.90
60717;DHT22;46566;52.700;6.192;2023-03-20T06:04:23;7.90;99.90
60717;DHT22;46566;52.700;6.192;2023-03-20T06:07:07;8.20;99.90
60717;DHT22;46566;52.700;6.192;2023-03-20T06:09:34;7.80;99.90
60717;DHT22;46566;52.700;6.192;2023-03-20T06:12:04;7.80;99.90
60717;DHT22;46566;52.700;6.192;2023-03-20T06:14:30;7.80;99.90
60717;DHT22;46566;52.700;6.192;2023-03-20T06:17:00;7.90;99.90
60717;DHT22;46566;52.700;6.192;2023-03-20T06:19:26;7.90;99.90
60717;DHT22;46566;52.700;6.192;2023-03-20T06:21:51;7.90;99.90
60717;DHT22;46566;52.700;6.192;2023-03-20T06:24:19;7.90;99.90
60717;DHT22;46566;52.700;6.192;2023-03-20T06:26:45;7.90;99.90
60717;DHT22;46566;52.700;6.192;2023-03-20T06:29:12;8.00;99.90
60717;DHT22;46566;52.700;6.192;2023-03-20T06:31:38;8.00;99.90
60717;DHT22;46566;52.700;6.192;2023-03-20T06:34:06;8.00;99.90
60717;DHT22;46566;52.700;6.192;2023-03-20T06:36:37;8.00;99.90
60717;DHT22;46566;52.700;6.192;2023-03-20T06:39:08;7.90;99.90
60717;DHT22;46566;52.700;6.192;2023-03-20T06:41:35;8.00;99.90
60717;DHT22;46566;52.700;6.192;2023-03-20T06:44:05;7.90;99.90
60717;DHT22;46566;52.700;6.192;2023-03-20T06:46:51;8.00;99.90
60717;DHT22;46566;52.700;6.192;2023-03-20T06:49:17;8.00;99.90
60717;DHT22;46566;52.700;6.192;2023-03-20T06:51:43;8.00;99.90
60717;DHT22;46566;52.700;6.192;2023-03-20T06:54:14;8.00;99.90
60717;DHT22;46566;52.700;6.192;2023-03-20T06:56:40;7.90;99.90
60717;DHT22;46566;52.700;6.192;2023-03-20T06:59:06;7.90;99.90
60717;DHT22;46566;52.700;6.192;2023-03-20T07:01:32;7.90;99.90
60717;DHT22;46566;52.700;6.192;2023-03-20T07:03:57;7.90;99.90
60717;DHT22;46566;52.700;6.192;2023-03-20T07:06:29;7.90;99.90
60717;DHT22;46566;52.700;6.192;2023-03-20T07:08:55;7.90;99.90
60717;DHT22;46566;52.700;6.192;2023-03-20T07:11:21;7.90;99.90
60717;DHT22;46566;52.700;6.192;2023-03-20T07:13:47;7.90;99.90
60717;DHT22;46566;52.700;6.192;2023-03-20T07:16:24;7.90;99.90
60717;DHT22;46566;52.700;6.192;2023-03-20T07:18:49;8.00;99.90
60717;DHT22;46566;52.700;6.192;2023-03-20T07:21:16;8.00;99.90
60717;DHT22;46566;52.700;6.192;2023-03-20T07:23:43;8.00;99.90
60717;DHT22;46566;52.700;6.192;2023-03-20T07:26:08;8.00;99.90
60717;DHT22;46566;52.700;6.192;2023-03-20T07:28:34;8.10;99.90
60717;DHT22;46566;52.700;6.192;2023-03-20T07:31:19;8.10;99.90
60717;DHT22;46566;52.700;6.192;2023-03-20T07:33:47;8.20;99.90
60717;DHT22;46566;52.700;6.192;2023-03-20T07:36:12;8.20;99.90
60717;DHT22;46566;52.700;6.192;2023-03-20T07:38:39;8.20;99.90
60717;DHT22;46566;52.700;6.192;2023-03-20T07:41:08;8.20;99.90
60717;DHT22;46566;52.700;6.192;2023-03-20T07:43:37;8.30;99.90
60717;DHT22;46566;52.700;6.192;2023-03-20T07:46:28;8.30;99.90
60717;DHT22;46566;52.700;6.192;2023-03-20T07:48:54;8.30;99.90
60717;DHT22;46566;52.700;6.192;2023-03-20T07:51:22;8.30;99.90
60717;DHT22;46566;52.700;6.192;2023-03-20T07:53:48;8.40;99.90
60717;DHT22;46566;52.700;6.192;2023-03-20T07:56:14;8.40;99.90
60717;DHT22;46566;52.700;6.192;2023-03-20T07:58:39;8.50;99.90
60717;DHT22;46566;52.700;6.192;2023-03-20T08:01:05;8.50;99.90
60717;DHT22;46566;52.700;6.192;2023-03-20T08:03:30;8.50;99.90
60717;DHT22;46566;52.700;6.192;2023-03-20T08:05:56;8.50;99.90
60717;DHT22;46566;52.700;6.192;2023-03-20T08:08:22;8.60;99.90
60717;DHT22;46566;52.700;6.192;2023-03-20T08:10:47;8.60;99.90
60717;DHT22;46566;52.700;6.192;2023-03-20T08:13:13;8.70;99.90
60717;DHT22;46566;52.700;6.192;2023-03-20T08:15:38;8.70;99.90
60717;DHT22;46566;52.700;6.192;2023-03-20T08:18:04;8.80;99.90
60717;DHT22;46566;52.700;6.192;2023-03-20T08:20:30;8.80;99.90
60717;DHT22;46566;52.700;6.192;2023-03-20T08:22:56;8.90;99.90
60717;DHT22;46566;52.700;6.192;2023-03-20T08:25:21;8.90;99.90
60717;DHT22;46566;52.700;6.192;2023-03-20T08:27:47;9.00;99.90
60717;DHT22;46566;52.700;6.192;2023-03-20T08:30:13;9.00;99.90
60717;DHT22;46566;52.700;6.192;2023-03-20T08:32:38;9.00;99.90
60717;DHT22;46566;52.700;6.192;2023-03-20T08:35:04;9.10;99.90
60717;DHT22;46566;52.700;6.192;2023-03-20T08:37:30;9.20;99.90
60717;DHT22;46566;52.700;6.192;2023-03-20T08:39:56;9.20;99.90
60717;DHT22;46566;52.700;6.192;2023-03-20T08:42:21;9.30;99.90
60717;DHT22;46566;52.700;6.192;2023-03-20T08:44:47;9.50;99.90
60717;DHT22;46566;52.700;6.192;2023-03-20T08:47:12;9.60;99.90
60717;DHT22;46566;52.700;6.192;2023-03-20T08:49:38;9.70;99.90
60717;DHT22;46566;52.700;6.192;2023-03-20T08:52:04;9.70;99.90
60717;DHT22;46566;52.700;6.192;2023-03-20T08:54:30;9.80;99.90
60717;DHT22;46566;52.700;6.192;2023-03-20T08:56:55;9.80;99.90
60717;DHT22;46566;52.700;6.192;2023-03-20T08:59:21;9.80;99.90
60717;DHT22;46566;52.700;6.192;2023-03-20T09:01:47;9.90;99.90
60717;DHT22;46566;52.700;6.192;2023-03-20T09:04:13;10.00;99.90
60717;DHT22;46566;52.700;6.192;2023-03-20T09:06:39;10.10;99.90
60717;DHT22;46566;52.700;6.192;2023-03-20T09:09:05;10.10;99.90
60717;DHT22;46566;52.700;6.192;2023-03-20T09:11:31;10.20;99.90
60717;DHT22;46566;52.700;6.192;2023-03-20T09:13:57;10.20;99.90
60717;DHT22;46566;52.700;6.192;2023-03-20T09:16:23;10.30;99.90
60717;DHT22;46566;52.700;6.192;2023-03-20T09:18:48;10.50;99.90
60717;DHT22;46566;52.700;6.192;2023-03-20T09:21:14;10.60;99.90
60717;DHT22;46566;52.700;6.192;2023-03-20T09:23:40;10.70;99.90
60717;DHT22;46566;52.700;6.192;2023-03-20T09:26:05;10.80;99.90
60717;DHT22;46566;52.700;6.192;2023-03-20T09:28:31;10.80;99.90
60717;DHT22;46566;52.700;6.192;2023-03-20T09:30:57;10.80;99.90
60717;DHT22;46566;52.700;6.192;2023-03-20T09:33:22;10.70;99.90
60717;DHT22;46566;52.700;6.192;2023-03-20T09:35:48;10.70;99.90
60717;DHT22;46566;52.700;6.192;2023-03-20T09:38:14;10.60;99.90
60717;DHT22;46566;52.700;6.192;2023-03-20T09:55:36;10.50;99.90
60717;DHT22;46566;52.700;6.192;2023-03-20T09:58:09;10.50;99.90
60717;DHT22;46566;52.700;6.192;2023-03-20T10:00:36;10.40;99.90
60717;DHT22;46566;52.700;6.192;2023-03-20T10:03:03;10.40;99.90
60717;DHT22;46566;52.700;6.192;2023-03-20T10:08:21;10.30;99.90
60717;DHT22;46566;52.700;6.192;2023-03-20T10:21:42;10.20;99.90
60717;DHT22;46566;52.700;6.192;2023-03-20T10:24:14;10.30;99.90
60717;DHT22;46566;52.700;6.192;2023-03-20T10:29:49;10.30;99.90
60717;DHT22;46566;52.700;6.192;2023-03-20T10:35:10;10.30;99.90
60717;DHT22;46566;52.700;6.192;2023-03-20T10:37:51;10.20;99.90
60717;DHT22;46566;52.700;6.192;2023-03-20T10:40:33;10.10;99.90
60717;DHT22;46566;52.700;6.192;2023-03-20T10:43:02;10.10;99.90
60717;DHT22;46566;52.700;6.192;2023-03-20T10:45:30;10.10;99.90
60717;DHT22;46566;52.700;6.192;2023-03-20T10:47:58;10.10;99.90
60717;DHT22;46566;52.700;6.192;2023-03-20T10:53:26;10.10;99.90
60717;DHT22;46566;52.700;6.192;2023-03-20T10:55:53;10.20;99.90
60717;DHT22;46566;52.700;6.192;2023-03-20T11:01:13;10.30;99.90
60717;DHT22;46566;52.700;6.192;2023-03-20T11:03:38;10.30;99.90
60717;DHT22;46566;52.700;6.192;2023-03-20T11:08:53;10.30;99.90
60717;DHT22;46566;52.700;6.192;2023-03-20T11:11:23;10.40;99.90
60717;DHT22;46566;52.700;6.192;2023-03-20T11:13:49;10.40;99.90
60717;DHT22;46566;52.700;6.192;2023-03-20T11:19:07;10.40;99.90
60717;DHT22;46566;52.700;6.192;2023-03-20T11:21:33;10.30;99.90
60717;DHT22;46566;52.700;6.192;2023-03-20T11:23:59;10.30;99.90
60717;DHT22;46566;52.700;6.192;2023-03-20T11:26:43;10.30;99.90
60717;DHT22;46566;52.700;6.192;2023-03-20T11:29:20;10.30;99.90
60717;DHT22;46566;52.700;6.192;2023-03-20T11:31:47;10.30;99.90
60717;DHT22;46566;52.700;6.192;2023-03-20T11:37:20;10.30;99.90
60717;DHT22;46566;52.700;6.192;2023-03-20T11:42:57;10.40;99.90
60717;DHT22;46566;52.700;6.192;2023-03-20T11:48:21;10.30;99.90
60717;DHT22;46566;52.700;6.192;2023-03-20T11:50:58;10.20;99.90
60717;DHT22;46566;52.700;6.192;2023-03-20T11:56:20;10.20;99.90
60717;DHT22;46566;52.700;6.192;2023-03-20T11:58:58;10.20;99.90
60717;DHT22;46566;52.700;6.192;2023-03-20T12:04:19;10.10;99.90
60717;DHT22;46566;52.700;6.192;2023-03-20T12:15:28;10.00;99.90
60717;DHT22;46566;52.700;6.192;2023-03-20T12:56:00;9.20;99.90
60717;DHT22;46566;52.700;6.192;2023-03-20T12:58:33;9.10;99.90
60717;DHT22;46566;52.700;6.192;2023-03-20T13:20:12;8.90;99.90
60717;DHT22;46566;52.700;6.192;2023-03-20T13:23:21;8.90;99.90
60717;DHT22;46566;52.700;6.192;2023-03-20T13:42:17;8.90;99.90
60717;DHT22;46566;52.700;6.192;2023-03-20T13:44:43;8.90;99.90
60717;DHT22;46566;52.700;6.192;2023-03-20T13:52:41;8.90;99.90
60717;DHT22;46566;52.700;6.192;2023-03-20T13:58:10;8.80;99.90
60717;DHT22;46566;52.700;6.192;2023-03-20T14:03:48;8.80;99.90
60717;DHT22;46566;52.700;6.192;2023-03-20T14:09:04;8.80;99.90
60717;DHT22;46566;52.700;6.192;2023-03-20T14:11:48;8.80;99.90
60717;DHT22;46566;52.700;6.192;2023-03-20T14:17:06;8.90;99.90
60717;DHT22;46566;52.700;6.192;2023-03-20T14:19:34;8.90;99.90
60717;DHT22;46566;52.700;6.192;2023-03-20T14:22:01;8.90;99.90
60717;DHT22;46566;52.700;6.192;2023-03-20T14:27:18;8.90;99.90
60717;DHT22;46566;52.700;6.192;2023-03-20T14:29:45;9.00;99.90
60717;DHT22;46566;52.700;6.192;2023-03-20T14:35:20;8.80;99.90
60717;DHT22;46566;52.700;6.192;2023-03-20T14:40:48;8.80;99.90
60717;DHT22;46566;52.700;6.192;2023-03-20T14:43:19;8.80;99.90
60717;DHT22;46566;52.700;6.192;2023-03-20T14:48:41;8.80;99.90
60717;DHT22;46566;52.700;6.192;2023-03-20T14:54:27;8.80;99.90
60717;DHT22;46566;52.700;6.192;2023-03-20T14:56:53;8.80;99.90
60717;DHT22;46566;52.700;6.192;2023-03-20T14:59:37;8.80;99.90
60717;DHT22;46566;52.700;6.192;2023-03-20T15:02:03;8.70;99.90
60717;DHT22;46566;52.700;6.192;2023-03-20T15:04:38;8.80;99.90
60717;DHT22;46566;52.700;6.192;2023-03-20T15:07:09;8.70;99.90
60717;DHT22;46566;52.700;6.192;2023-03-20T15:09:58;8.80;99.90
60717;DHT22;46566;52.700;6.192;2023-03-20T15:12:29;8.70;99.90
60717;DHT22;46566;52.700;6.192;2023-03-20T15:14:59;8.70;99.90
60717;DHT22;46566;52.700;6.192;2023-03-20T15:17:44;8.70;99.90
60717;DHT22;46566;52.700;6.192;2023-03-20T15:31:27;8.70;99.90
60717;DHT22;46566;52.700;6.192;2023-03-20T15:33:54;8.70;99.90
60717;DHT22;46566;52.700;6.192;2023-03-20T15:36:21;8.70;99.90
60717;DHT22;46566;52.700;6.192;2023-03-20T15:41:32;8.70;99.90
60717;DHT22;46566;52.700;6.192;2023-03-20T15:44:02;8.70;99.90
60717;DHT22;46566;52.700;6.192;2023-03-20T15:46:28;8.70;99.90
60717;DHT22;46566;52.700;6.192;2023-03-20T15:49:16;8.70;99.90
60717;DHT22;46566;52.700;6.192;2023-03-20T15:51:45;8.70;99.90
60717;DHT22;46566;52.700;6.192;2023-03-20T15:54:14;8.70;99.90
60717;DHT22;46566;52.700;6.192;2023-03-20T15:59:31;8.70;99.90
60717;DHT22;46566;52.700;6.192;2023-03-20T16:01:58;8.70;99.90
60717;DHT22;46566;52.700;6.192;2023-03-20T16:04:24;8.70;99.90
60717;DHT22;46566;52.700;6.192;2023-03-20T16:09:41;8.70;99.90
60717;DHT22;46566;52.700;6.192;2023-03-20T16:12:08;8.70;99.90
60717;DHT22;46566;52.700;6.192;2023-03-20T16:14:39;8.70;99.90
60717;DHT22;46566;52.700;6.192;2023-03-20T16:17:23;8.70;99.90
60717;DHT22;46566;52.700;6.192;2023-03-20T16:19:49;8.80;99.90
60717;DHT22;46566;52.700;6.192;2023-03-20T16:22:21;8.70;99.90
60717;DHT22;46566;52.700;6.192;2023-03-20T16:27:40;8.80;99.90
60717;DHT22;46566;52.700;6.192;2023-03-20T16:30:21;8.80;99.90
60717;DHT22;46566;52.700;6.192;2023-03-20T16:39:24;8.70;99.90
60717;DHT22;46566;52.700;6.192;2023-03-20T16:41:31;8.70;99.90
60717;DHT22;46566;52.700;6.192;2023-03-20T16:43:58;8.70;99.90
60717;DHT22;46566;52.700;6.192;2023-03-20T17:06:25;8.60;99.90
60717;DHT22;46566;52.700;6.192;2023-03-20T17:11:38;8.60;99.90
60717;DHT22;46566;52.700;6.192;2023-03-20T17:14:04;8.60;99.90
60717;DHT22;46566;52.700;6.192;2023-03-20T17:39:59;8.60;99.90
60717;DHT22;46566;52.700;6.192;2023-03-20T17:42:29;8.70;99.90
60717;DHT22;46566;52.700;6.192;2023-03-20T17:45:02;8.70;99.90
60717;DHT22;46566;52.700;6.192;2023-03-20T17:47:28;8.70;99.90
60717;DHT22;46566;52.700;6.192;2023-03-20T17:49:54;8.70;99.90
60717;DHT22;46566;52.700;6.192;2023-03-20T17:52:21;8.70;99.90
60717;DHT22;46566;52.700;6.192;2023-03-20T17:54:47;8.70;99.90
60717;DHT22;46566;52.700;6.192;2023-03-20T17:57:20;8.70;99.90
60717;DHT22;46566;52.700;6.192;2023-03-20T17:59:46;8.70;99.90
60717;DHT22;46566;52.700;6.192;2023-03-20T18:02:12;8.60;99.90
60717;DHT22;46566;52.700;6.192;2023-03-20T18:04:37;8.60;99.90
60717;DHT22;46566;52.700;6.192;2023-03-20T18:07:03;8.60;99.90
60717;DHT22;46566;52.700;6.192;2023-03-20T18:09:29;8.60;99.90
60717;DHT22;46566;52.700;6.192;2023-03-20T18:11:55;8.60;99.90
60717;DHT22;46566;52.700;6.192;2023-03-20T18:14:21;8.60;99.90
60717;DHT22;46566;52.700;6.192;2023-03-20T18:16:46;8.60;99.90
60717;DHT22;46566;52.700;6.192;2023-03-20T18:19:19;8.60;99.90
60717;DHT22;46566;52.700;6.192;2023-03-20T18:21:45;8.60;99.90
60717;DHT22;46566;52.700;6.192;2023-03-20T18:24:11;8.60;99.90
60717;DHT22;46566;52.700;6.192;2023-03-20T18:26:36;8.60;99.90
60717;DHT22;46566;52.700;6.192;2023-03-20T18:29:02;8.60;99.90
60717;DHT22;46566;52.700;6.192;2023-03-20T18:31:27;8.60;99.90
60717;DHT22;46566;52.700;6.192;2023-03-20T18:33:53;8.60;99.90
60717;DHT22;46566;52.700;6.192;2023-03-20T18:36:20;8.60;99.90
60717;DHT22;46566;52.700;6.192;2023-03-20T18:38:46;8.60;99.90
60717;DHT22;46566;52.700;6.192;2023-03-20T18:41:12;8.60;99.90
60717;DHT22;46566;52.700;6.192;2023-03-20T18:43:38;8.70;99.90
60717;DHT22;46566;52.700;6.192;2023-03-20T18:46:04;8.60;99.90
60717;DHT22;46566;52.700;6.192;2023-03-20T18:48:30;8.60;99.90
60717;DHT22;46566;52.700;6.192;2023-03-20T18:50:56;8.70;99.90
60717;DHT22;46566;52.700;6.192;2023-03-20T18:53:26;8.70;99.90
60717;DHT22;46566;52.700;6.192;2023-03-20T18:55:53;8.70;99.90
60717;DHT22;46566;52.700;6.192;2023-03-20T18:58:26;8.70;99.90
60717;DHT22;46566;52.700;6.192;2023-03-20T19:00:52;8.70;99.90
60717;DHT22;46566;52.700;6.192;2023-03-20T19:03:21;8.70;99.90
60717;DHT22;46566;52.700;6.192;2023-03-20T19:05:54;8.70;99.90
60717;DHT22;46566;52.700;6.192;2023-03-20T19:08:20;8.70;99.90
60717;DHT22;46566;52.700;6.192;2023-03-20T19:10:46;8.70;99.90
60717;DHT22;46566;52.700;6.192;2023-03-20T19:13:13;8.70;99.90
60717;DHT22;46566;52.700;6.192;2023-03-20T19:15:39;8.70;99.90
60717;DHT22;46566;52.700;6.192;2023-03-20T19:18:15;8.70;99.90
60717;DHT22;46566;52.700;6.192;2023-03-20T19:20:43;8.70;99.90
60717;DHT22;46566;52.700;6.192;2023-03-20T19:23:10;8.70;99.90
60717;DHT22;46566;52.700;6.192;2023-03-20T19:25:37;8.70;99.90
60717;DHT22;46566;52.700;6.192;2023-03-20T19:28:09;8.70;99.90
60717;DHT22;46566;52.700;6.192;2023-03-20T19:30:43;8.70;99.90
60717;DHT22;46566;52.700;6.192;2023-03-20T19:33:08;8.70;99.90
60717;DHT22;46566;52.700;6.192;2023-03-20T19:35:34;8.80;99.90
60717;DHT22;46566;52.700;6.192;2023-03-20T19:38:00;8.80;99.90
60717;DHT22;46566;52.700;6.192;2023-03-20T19:40:30;8.70;99.90
60717;DHT22;46566;52.700;6.192;2023-03-20T19:42:57;8.80;99.90
60717;DHT22;46566;52.700;6.192;2023-03-20T19:45:41;8.80;99.90
60717;DHT22;46566;52.700;6.192;2023-03-20T19:50:40;8.80;99.90
60717;DHT22;46566;52.700;6.192;2023-03-20T19:53:10;8.80;99.90
60717;DHT22;46566;52.700;6.192;2023-03-20T19:55:36;8.80;99.90
60717;DHT22;46566;52.700;6.192;2023-03-20T19:58:02;8.80;99.90
60717;DHT22;46566;52.700;6.192;2023-03-20T20:00:28;8.80;99.90
60717;DHT22;46566;52.700;6.192;2023-03-20T20:02:56;8.80;99.90
60717;DHT22;46566;52.700;6.192;2023-03-20T20:05:24;8.90;99.90
60717;DHT22;46566;52.700;6.192;2023-03-20T20:07:51;8.80;99.90
60717;DHT22;46566;52.700;6.192;2023-03-20T20:10:17;8.90;99.90
60717;DHT22;46566;52.700;6.192;2023-03-20T20:12:48;8.90;99.90
60717;DHT22;46566;52.700;6.192;2023-03-20T20:15:14;8.90;99.90
60717;DHT22;46566;52.700;6.192;2023-03-20T20:17:40;8.90;99.90
60717;DHT22;46566;52.700;6.192;2023-03-20T20:20:06;8.90;99.90
60717;DHT22;46566;52.700;6.192;2023-03-20T20:22:32;8.90;99.90
60717;DHT22;46566;52.700;6.192;2023-03-20T20:25:01;8.90;99.90
60717;DHT22;46566;52.700;6.192;2023-03-20T20:27:27;8.90;99.90
60717;DHT22;46566;52.700;6.192;2023-03-20T20:29:55;9.00;99.90
60717;DHT22;46566;52.700;6.192;2023-03-20T20:32:22;9.00;99.90
60717;DHT22;46566;52.700;6.192;2023-03-20T20:34:48;9.00;99.90
60717;DHT22;46566;52.700;6.192;2023-03-20T20:37:14;9.00;99.90
60717;DHT22;46566;52.700;6.192;2023-03-20T20:39:40;9.00;99.90
60717;DHT22;46566;52.700;6.192;2023-03-20T20:42:05;9.00;99.90
60717;DHT22;46566;52.700;6.192;2023-03-20T20:44:31;9.00;99.90